sensor_id;sensor_type;location;lat;lon;timestamp;pressure;altitude;pressure_sealevel;temperature
26158;BMP280;67284;44.782;10.282;2023-07-08T00:00:47;101449.84;;;24.28
26158;BMP280;67284;44.782;10.282;2023-07-08T00:05:42;101439.41;;;24.27
26158;BMP280;67284;44.782;10.282;2023-07-08T00:10:34;101443.97;;;24.23
26158;BMP280;67284;44.782;10.282;2023-07-08T00:15:28;101444.13;;;24.20
26158;BMP280;67284;44.782;10.282;2023-07-08T00:20:23;101438.25;;;24.15
26158;BMP280;67284;44.782;10.282;2023-07-08T00:25:20;101434.13;;;24.11
26158;BMP280;67284;44.782;10.282;2023-07-08T00:35:13;101435.50;;;24.02
26158;BMP280;67284;44.782;10.282;2023-07-08T00:40:15;101429.75;;;23.95
26158;BMP280;67284;44.782;10.282;2023-07-08T00:45:18;101429.22;;;23.89
26158;BMP280;67284;44.782;10.282;2023-07-08T00:50:11;101426.75;;;23.86
26158;BMP280;67284;44.782;10.282;2023-07-08T00:55:08;101421.66;;;23.83
26158;BMP280;67284;44.782;10.282;2023-07-08T01:00:06;101434.06;;;23.81
26158;BMP280;67284;44.782;10.282;2023-07-08T01:05:22;101444.63;;;23.79
26158;BMP280;67284;44.782;10.282;2023-07-08T01:10:19;101443.09;;;23.75
26158;BMP280;67284;44.782;10.282;2023-07-08T01:15:12;101438.00;;;23.72
26158;BMP280;67284;44.782;10.282;2023-07-08T01:20:07;101439.22;;;23.65
26158;BMP280;67284;44.782;10.282;2023-07-08T01:25:05;101439.34;;;23.62
26158;BMP280;67284;44.782;10.282;2023-07-08T01:29:58;101446.41;;;23.62
26158;BMP280;67284;44.782;10.282;2023-07-08T01:34:52;101436.81;;;23.61
26158;BMP280;67284;44.782;10.282;2023-07-08T01:39:52;101428.16;;;23.59
26158;BMP280;67284;44.782;10.282;2023-07-08T01:44:44;101413.41;;;23.56
26158;BMP280;67284;44.782;10.282;2023-07-08T01:49:37;101410.78;;;23.56
26158;BMP280;67284;44.782;10.282;2023-07-08T01:54:31;101410.84;;;23.55
26158;BMP280;67284;44.782;10.282;2023-07-08T01:59:23;101391.63;;;23.55
26158;BMP280;67284;44.782;10.282;2023-07-08T02:04:15;101394.34;;;23.53
26158;BMP280;67284;44.782;10.282;2023-07-08T02:09:06;101384.00;;;23.50
26158;BMP280;67284;44.782;10.282;2023-07-08T02:13:58;101394.59;;;23.49
26158;BMP280;67284;44.782;10.282;2023-07-08T02:18:52;101392.88;;;23.48
26158;BMP280;67284;44.782;10.282;2023-07-08T02:23:49;101393.88;;;23.45
26158;BMP280;67284;44.782;10.282;2023-07-08T02:28:41;101382.69;;;23.42
26158;BMP280;67284;44.782;10.282;2023-07-08T02:33:32;101394.03;;;23.42
26158;BMP280;67284;44.782;10.282;2023-07-08T02:38:24;101381.75;;;23.43
26158;BMP280;67284;44.782;10.282;2023-07-08T02:43:16;101375.66;;;23.42
26158;BMP280;67284;44.782;10.282;2023-07-08T02:48:08;101362.53;;;23.42
26158;BMP280;67284;44.782;10.282;2023-07-08T02:53:00;101373.03;;;23.42
26158;BMP280;67284;44.782;10.282;2023-07-08T02:57:52;101371.31;;;23.41
26158;BMP280;67284;44.782;10.282;2023-07-08T03:02:45;101359.81;;;23.44
26158;BMP280;67284;44.782;10.282;2023-07-08T03:07:37;101365.16;;;23.42
26158;BMP280;67284;44.782;10.282;2023-07-08T03:12:29;101370.50;;;23.41
26158;BMP280;67284;44.782;10.282;2023-07-08T03:17:21;101377.50;;;23.40
26158;BMP280;67284;44.782;10.282;2023-07-08T03:22:13;101380.19;;;23.39
26158;BMP280;67284;44.782;10.282;2023-07-08T03:27:05;101379.38;;;23.38
26158;BMP280;67284;44.782;10.282;2023-07-08T03:32:01;101362.84;;;23.36
26158;BMP280;67284;44.782;10.282;2023-07-08T03:36:53;101374.28;;;23.35
26158;BMP280;67284;44.782;10.282;2023-07-08T03:41:45;101382.16;;;23.35
26158;BMP280;67284;44.782;10.282;2023-07-08T03:46:37;101393.50;;;23.36
26158;BMP280;67284;44.782;10.282;2023-07-08T03:51:36;101390.94;;;23.34
26158;BMP280;67284;44.782;10.282;2023-07-08T03:56:29;101393.72;;;23.31
26158;BMP280;67284;44.782;10.282;2023-07-08T04:01:23;101411.19;;;23.32
26158;BMP280;67284;44.782;10.282;2023-07-08T04:06:16;101420.91;;;23.30
26158;BMP280;67284;44.782;10.282;2023-07-08T04:11:16;101438.53;;;23.28
26158;BMP280;67284;44.782;10.282;2023-07-08T04:16:16;101450.81;;;23.28
26158;BMP280;67284;44.782;10.282;2023-07-08T04:21:11;101451.75;;;23.27
26158;BMP280;67284;44.782;10.282;2023-07-08T04:26:08;101453.56;;;23.25
26158;BMP280;67284;44.782;10.282;2023-07-08T04:31:00;101456.19;;;23.25
26158;BMP280;67284;44.782;10.282;2023-07-08T04:35:52;101464.16;;;23.23
26158;BMP280;67284;44.782;10.282;2023-07-08T04:40:45;101467.66;;;23.24
26158;BMP280;67284;44.782;10.282;2023-07-08T04:45:41;101465.94;;;23.23
26158;BMP280;67284;44.782;10.282;2023-07-08T04:50:34;101459.84;;;23.22
26158;BMP280;67284;44.782;10.282;2023-07-08T04:55:26;101451.09;;;23.22
26158;BMP280;67284;44.782;10.282;2023-07-08T05:00:19;101439.59;;;23.24
26158;BMP280;67284;44.782;10.282;2023-07-08T05:05:11;101410.72;;;23.24
26158;BMP280;67284;44.782;10.282;2023-07-08T05:10:03;101417.69;;;23.25
26158;BMP280;67284;44.782;10.282;2023-07-08T05:14:55;101432.44;;;23.28
26158;BMP280;67284;44.782;10.282;2023-07-08T05:19:47;101426.31;;;23.27
26158;BMP280;67284;44.782;10.282;2023-07-08T05:24:42;101435.84;;;23.30
26158;BMP280;67284;44.782;10.282;2023-07-08T05:29:37;101431.56;;;23.27
26158;BMP280;67284;44.782;10.282;2023-07-08T05:34:29;101421.00;;;23.29
26158;BMP280;67284;44.782;10.282;2023-07-08T05:39:21;101405.31;;;23.27
26158;BMP280;67284;44.782;10.282;2023-07-08T05:44:12;101406.19;;;23.28
26158;BMP280;67284;44.782;10.282;2023-07-08T05:49:04;101415.06;;;23.25
26158;BMP280;67284;44.782;10.282;2023-07-08T05:53:56;101415.97;;;23.24
26158;BMP280;67284;44.782;10.282;2023-07-08T05:58:48;101427.41;;;23.23
26158;BMP280;67284;44.782;10.282;2023-07-08T06:03:40;101427.47;;;23.22
26158;BMP280;67284;44.782;10.282;2023-07-08T06:08:32;101437.13;;;23.21
26158;BMP280;67284;44.782;10.282;2023-07-08T06:13:24;101440.59;;;23.22
26158;BMP280;67284;44.782;10.282;2023-07-08T06:18:15;101432.88;;;23.19
26158;BMP280;67284;44.782;10.282;2023-07-08T06:23:07;101422.47;;;23.17
26158;BMP280;67284;44.782;10.282;2023-07-08T06:27:59;101419.06;;;23.15
26158;BMP280;67284;44.782;10.282;2023-07-08T06:32:51;101410.25;;;23.16
26158;BMP280;67284;44.782;10.282;2023-07-08T06:37:43;101397.00;;;23.19
26158;BMP280;67284;44.782;10.282;2023-07-08T06:42:35;101406.47;;;23.22
26158;BMP280;67284;44.782;10.282;2023-07-08T06:47:34;101414.28;;;23.23
26158;BMP280;67284;44.782;10.282;2023-07-08T06:52:26;101435.28;;;23.23
26158;BMP280;67284;44.782;10.282;2023-07-08T06:57:18;101445.69;;;23.25
26158;BMP280;67284;44.782;10.282;2023-07-08T07:02:10;101429.91;;;23.26
26158;BMP280;67284;44.782;10.282;2023-07-08T07:07:02;101430.72;;;23.27
26158;BMP280;67284;44.782;10.282;2023-07-08T07:11:54;101412.28;;;23.28
26158;BMP280;67284;44.782;10.282;2023-07-08T07:16:46;101400.84;;;23.29
26158;BMP280;67284;44.782;10.282;2023-07-08T07:21:58;101401.63;;;23.31
26158;BMP280;67284;44.782;10.282;2023-07-08T07:26:50;101405.03;;;23.33
26158;BMP280;67284;44.782;10.282;2023-07-08T07:31:42;101412.81;;;23.35
26158;BMP280;67284;44.782;10.282;2023-07-08T07:36:34;101410.13;;;23.36
26158;BMP280;67284;44.782;10.282;2023-07-08T07:41:26;101427.56;;;23.37
26158;BMP280;67284;44.782;10.282;2023-07-08T07:46:18;101428.25;;;23.41
26158;BMP280;67284;44.782;10.282;2023-07-08T07:51:10;101427.34;;;23.42
26158;BMP280;67284;44.782;10.282;2023-07-08T07:56:02;101435.97;;;23.44
26158;BMP280;67284;44.782;10.282;2023-07-08T08:00:55;101446.41;;;23.45
26158;BMP280;67284;44.782;10.282;2023-07-08T08:05:47;101445.25;;;23.51
26158;BMP280;67284;44.782;10.282;2023-07-08T08:10:39;101444.41;;;23.50
26158;BMP280;67284;44.782;10.282;2023-07-08T08:15:31;101447.81;;;23.52
26158;BMP280;67284;44.782;10.282;2023-07-08T08:20:24;101448.47;;;23.55
26158;BMP280;67284;44.782;10.282;2023-07-08T08:25:18;101451.81;;;23.59
26158;BMP280;67284;44.782;10.282;2023-07-08T08:30:11;101449.03;;;23.62
26158;BMP280;67284;44.782;10.282;2023-07-08T08:35:04;101446.41;;;23.62
26158;BMP280;67284;44.782;10.282;2023-07-08T08:39:56;101443.69;;;23.63
26158;BMP280;67284;44.782;10.282;2023-07-08T08:44:48;101454.13;;;23.65
26158;BMP280;67284;44.782;10.282;2023-07-08T08:49:44;101462.66;;;23.70
26158;BMP280;67284;44.782;10.282;2023-07-08T08:54:39;101451.66;;;23.79
26158;BMP280;67284;44.782;10.282;2023-07-08T08:59:55;101445.31;;;23.83
26158;BMP280;67284;44.782;10.282;2023-07-08T09:04:47;101445.00;;;23.89
26158;BMP280;67284;44.782;10.282;2023-07-08T09:10:04;101449.16;;;23.93
26158;BMP280;67284;44.782;10.282;2023-07-08T09:15:13;101451.53;;;23.97
26158;BMP280;67284;44.782;10.282;2023-07-08T09:20:26;101446.03;;;24.02
26158;BMP280;67284;44.782;10.282;2023-07-08T09:30:24;101444.06;;;24.22
26158;BMP280;67284;44.782;10.282;2023-07-08T09:35:26;101442.09;;;24.25
26158;BMP280;67284;44.782;10.282;2023-07-08T09:40:22;101432.84;;;24.35
26158;BMP280;67284;44.782;10.282;2023-07-08T09:45:18;101443.00;;;24.41
26158;BMP280;67284;44.782;10.282;2023-07-08T09:55:13;101436.81;;;24.42
26158;BMP280;67284;44.782;10.282;2023-07-08T10:00:17;101433.75;;;24.50
26158;BMP280;67284;44.782;10.282;2023-07-08T10:05:27;101433.50;;;24.54
26158;BMP280;67284;44.782;10.282;2023-07-08T10:10:34;101437.75;;;24.57
26158;BMP280;67284;44.782;10.282;2023-07-08T10:15:32;101429.59;;;24.61
26158;BMP280;67284;44.782;10.282;2023-07-08T10:20:34;101432.66;;;24.69
26158;BMP280;67284;44.782;10.282;2023-07-08T10:30:39;101421.25;;;24.84
26158;BMP280;67284;44.782;10.282;2023-07-08T10:35:37;101399.66;;;24.93
26158;BMP280;67284;44.782;10.282;2023-07-08T10:45:38;101393.19;;;25.14
26158;BMP280;67284;44.782;10.282;2023-07-08T10:55:58;101398.56;;;25.26
26158;BMP280;67284;44.782;10.282;2023-07-08T11:06:02;101392.59;;;25.38
26158;BMP280;67284;44.782;10.282;2023-07-08T11:16:26;101385.34;;;25.55
26158;BMP280;67284;44.782;10.282;2023-07-08T11:21:46;101380.28;;;25.66
26158;BMP280;67284;44.782;10.282;2023-07-08T11:27:01;101372.47;;;25.65
26158;BMP280;67284;44.782;10.282;2023-07-08T11:31:56;101370.44;;;25.83
26158;BMP280;67284;44.782;10.282;2023-07-08T11:36:49;101367.34;;;25.91
26158;BMP280;67284;44.782;10.282;2023-07-08T11:41:42;101358.28;;;25.95
26158;BMP280;67284;44.782;10.282;2023-07-08T11:46:34;101345.66;;;26.00
26158;BMP280;67284;44.782;10.282;2023-07-08T11:51:29;101340.56;;;25.97
26158;BMP280;67284;44.782;10.282;2023-07-08T11:56:23;101336.59;;;26.04
26158;BMP280;67284;44.782;10.282;2023-07-08T12:01:23;101346.50;;;26.00
26158;BMP280;67284;44.782;10.282;2023-07-08T12:11:18;101337.94;;;25.83
26158;BMP280;67284;44.782;10.282;2023-07-08T12:16:15;101342.94;;;25.87
26158;BMP280;67284;44.782;10.282;2023-07-08T12:21:07;101339.97;;;26.06
26158;BMP280;67284;44.782;10.282;2023-07-08T12:25:59;101333.22;;;26.02
26158;BMP280;67284;44.782;10.282;2023-07-08T12:30:52;101324.75;;;25.97
26158;BMP280;67284;44.782;10.282;2023-07-08T12:35:46;101326.38;;;25.85
26158;BMP280;67284;44.782;10.282;2023-07-08T12:40:40;101319.88;;;25.77
26158;BMP280;67284;44.782;10.282;2023-07-08T12:45:32;101331.56;;;25.87
26158;BMP280;67284;44.782;10.282;2023-07-08T12:50:24;101322.19;;;26.09
26158;BMP280;67284;44.782;10.282;2023-07-08T12:55:16;101318.22;;;26.16
26158;BMP280;67284;44.782;10.282;2023-07-08T13:05:14;101313.44;;;26.09
26158;BMP280;67284;44.782;10.282;2023-07-08T13:10:07;101310.44;;;26.01
26158;BMP280;67284;44.782;10.282;2023-07-08T13:15:00;101299.28;;;26.10
26158;BMP280;67284;44.782;10.282;2023-07-08T13:19:52;101310.94;;;26.20
26158;BMP280;67284;44.782;10.282;2023-07-08T13:24:45;101302.00;;;26.22
26158;BMP280;67284;44.782;10.282;2023-07-08T13:29:37;101305.56;;;26.35
26158;BMP280;67284;44.782;10.282;2023-07-08T13:34:32;101306.53;;;26.34
26158;BMP280;67284;44.782;10.282;2023-07-08T13:39:33;101300.16;;;26.36
26158;BMP280;67284;44.782;10.282;2023-07-08T13:44:26;101290.59;;;26.35
26158;BMP280;67284;44.782;10.282;2023-07-08T13:54:25;101297.69;;;26.47
26158;BMP280;67284;44.782;10.282;2023-07-08T13:59:21;101284.94;;;26.54
26158;BMP280;67284;44.782;10.282;2023-07-08T14:04:18;101293.91;;;26.51
26158;BMP280;67284;44.782;10.282;2023-07-08T14:09:18;101288.22;;;26.57
26158;BMP280;67284;44.782;10.282;2023-07-08T14:14:11;101288.97;;;26.59
26158;BMP280;67284;44.782;10.282;2023-07-08T14:19:05;101282.81;;;26.59
26158;BMP280;67284;44.782;10.282;2023-07-08T14:23:58;101273.34;;;26.56
26158;BMP280;67284;44.782;10.282;2023-07-08T14:28:50;101267.16;;;26.43
26158;BMP280;67284;44.782;10.282;2023-07-08T14:33:42;101265.09;;;26.48
26158;BMP280;67284;44.782;10.282;2023-07-08T14:38:34;101255.78;;;26.43
26158;BMP280;67284;44.782;10.282;2023-07-08T14:43:30;101254.94;;;26.42
26158;BMP280;67284;44.782;10.282;2023-07-08T14:48:24;101251.16;;;26.46
26158;BMP280;67284;44.782;10.282;2023-07-08T14:53:18;101246.72;;;26.47
26158;BMP280;67284;44.782;10.282;2023-07-08T14:58:20;101245.25;;;26.55
26158;BMP280;67284;44.782;10.282;2023-07-08T15:03:12;101246.75;;;26.59
26158;BMP280;67284;44.782;10.282;2023-07-08T15:08:04;101235.22;;;26.60
26158;BMP280;67284;44.782;10.282;2023-07-08T15:12:58;101234.22;;;26.36
26158;BMP280;67284;44.782;10.282;2023-07-08T15:17:51;101243.09;;;26.35
26158;BMP280;67284;44.782;10.282;2023-07-08T15:22:43;101226.41;;;26.35
26158;BMP280;67284;44.782;10.282;2023-07-08T15:27:35;101235.28;;;26.34
26158;BMP280;67284;44.782;10.282;2023-07-08T15:32:27;101240.34;;;26.37
26158;BMP280;67284;44.782;10.282;2023-07-08T15:37:31;101222.66;;;26.25
26158;BMP280;67284;44.782;10.282;2023-07-08T15:42:23;101223.88;;;26.33
26158;BMP280;67284;44.782;10.282;2023-07-08T15:47:15;101209.31;;;26.40
26158;BMP280;67284;44.782;10.282;2023-07-08T15:52:07;101218.22;;;26.39
26158;BMP280;67284;44.782;10.282;2023-07-08T15:56:59;101214.28;;;26.32
26158;BMP280;67284;44.782;10.282;2023-07-08T16:01:51;101202.13;;;26.30
26158;BMP280;67284;44.782;10.282;2023-07-08T16:06:43;101207.41;;;26.30
26158;BMP280;67284;44.782;10.282;2023-07-08T16:11:35;101189.38;;;26.36
26158;BMP280;67284;44.782;10.282;2023-07-08T16:16:27;101191.19;;;26.48
26158;BMP280;67284;44.782;10.282;2023-07-08T16:21:19;101190.97;;;26.51
26158;BMP280;67284;44.782;10.282;2023-07-08T16:26:14;101193.09;;;26.46
26158;BMP280;67284;44.782;10.282;2023-07-08T16:31:11;101190.34;;;26.35
26158;BMP280;67284;44.782;10.282;2023-07-08T16:36:04;101192.88;;;26.37
26158;BMP280;67284;44.782;10.282;2023-07-08T16:40:56;101185.69;;;26.39
26158;BMP280;67284;44.782;10.282;2023-07-08T16:45:47;101178.41;;;26.42
26158;BMP280;67284;44.782;10.282;2023-07-08T16:50:40;101185.38;;;26.43
26158;BMP280;67284;44.782;10.282;2023-07-08T16:55:32;101183.59;;;26.44
26158;BMP280;67284;44.782;10.282;2023-07-08T17:00:24;101175.56;;;26.45
26158;BMP280;67284;44.782;10.282;2023-07-08T17:05:20;101176.41;;;26.46
26158;BMP280;67284;44.782;10.282;2023-07-08T17:10:12;101177.66;;;26.40
26158;BMP280;67284;44.782;10.282;2023-07-08T17:15:05;101167.00;;;26.42
26158;BMP280;67284;44.782;10.282;2023-07-08T17:20:00;101168.81;;;26.41
26158;BMP280;67284;44.782;10.282;2023-07-08T17:24:57;101174.28;;;26.38
26158;BMP280;67284;44.782;10.282;2023-07-08T17:29:49;101172.00;;;26.46
26158;BMP280;67284;44.782;10.282;2023-07-08T17:34:41;101173.66;;;26.47
26158;BMP280;67284;44.782;10.282;2023-07-08T17:39:33;101167.75;;;26.44
26158;BMP280;67284;44.782;10.282;2023-07-08T17:44:25;101174.28;;;26.38
26158;BMP280;67284;44.782;10.282;2023-07-08T17:49:17;101170.72;;;26.39
26158;BMP280;67284;44.782;10.282;2023-07-08T17:54:13;101169.00;;;26.38
26158;BMP280;67284;44.782;10.282;2023-07-08T17:59:07;101174.81;;;26.43
26158;BMP280;67284;44.782;10.282;2023-07-08T18:04:01;101168.59;;;26.44
26158;BMP280;67284;44.782;10.282;2023-07-08T18:08:53;101169.00;;;26.38
26158;BMP280;67284;44.782;10.282;2023-07-08T18:13:46;101173.25;;;26.41
26158;BMP280;67284;44.782;10.282;2023-07-08T18:18:39;101168.81;;;26.41
26158;BMP280;67284;44.782;10.282;2023-07-08T18:23:33;101174.19;;;26.40
26158;BMP280;67284;44.782;10.282;2023-07-08T18:28:26;101182.41;;;26.35
26158;BMP280;67284;44.782;10.282;2023-07-08T18:33:18;101171.59;;;26.26
26158;BMP280;67284;44.782;10.282;2023-07-08T18:38:10;101184.16;;;26.23
26158;BMP280;67284;44.782;10.282;2023-07-08T18:43:06;101184.34;;;26.20
26158;BMP280;67284;44.782;10.282;2023-07-08T18:48:01;101193.59;;;26.13
26158;BMP280;67284;44.782;10.282;2023-07-08T18:52:53;101195.69;;;26.08
26158;BMP280;67284;44.782;10.282;2023-07-08T18:57:45;101194.63;;;25.98
26158;BMP280;67284;44.782;10.282;2023-07-08T19:02:52;101197.81;;;25.89
26158;BMP280;67284;44.782;10.282;2023-07-08T19:07:45;101193.72;;;25.85
26158;BMP280;67284;44.782;10.282;2023-07-08T19:12:37;101205.50;;;25.79
26158;BMP280;67284;44.782;10.282;2023-07-08T19:17:29;101217.28;;;25.74
26158;BMP280;67284;44.782;10.282;2023-07-08T19:22:22;101203.63;;;25.68
26158;BMP280;67284;44.782;10.282;2023-07-08T19:27:18;101209.19;;;25.63
26158;BMP280;67284;44.782;10.282;2023-07-08T19:32:15;101228.75;;;25.59
26158;BMP280;67284;44.782;10.282;2023-07-08T19:37:16;101233.38;;;25.56
26158;BMP280;67284;44.782;10.282;2023-07-08T19:42:15;101241.56;;;25.51
26158;BMP280;67284;44.782;10.282;2023-07-08T19:47:09;101254.38;;;25.43
26158;BMP280;67284;44.782;10.282;2023-07-08T19:52:04;101252.13;;;25.37
26158;BMP280;67284;44.782;10.282;2023-07-08T19:56:56;101256.81;;;25.32
26158;BMP280;67284;44.782;10.282;2023-07-08T20:01:48;101263.13;;;25.30
26158;BMP280;67284;44.782;10.282;2023-07-08T20:06:40;101277.41;;;25.26
26158;BMP280;67284;44.782;10.282;2023-07-08T20:11:31;101288.22;;;25.21
26158;BMP280;67284;44.782;10.282;2023-07-08T20:16:26;101302.59;;;25.16
26158;BMP280;67284;44.782;10.282;2023-07-08T20:21:18;101300.34;;;25.10
26158;BMP280;67284;44.782;10.282;2023-07-08T20:26:31;101306.81;;;25.05
26158;BMP280;67284;44.782;10.282;2023-07-08T20:31:24;101298.28;;;25.01
26158;BMP280;67284;44.782;10.282;2023-07-08T20:36:19;101304.44;;;25.00
26158;BMP280;67284;44.782;10.282;2023-07-08T20:41:11;101312.44;;;24.99
26158;BMP280;67284;44.782;10.282;2023-07-08T20:46:14;101309.13;;;24.95
26158;BMP280;67284;44.782;10.282;2023-07-08T20:51:07;101315.44;;;24.93
26158;BMP280;67284;44.782;10.282;2023-07-08T20:55:59;101322.66;;;24.89
26158;BMP280;67284;44.782;10.282;2023-07-08T21:00:51;101326.31;;;24.87
26158;BMP280;67284;44.782;10.282;2023-07-08T21:05:44;101323.84;;;24.84
26158;BMP280;67284;44.782;10.282;2023-07-08T21:10:36;101328.47;;;24.80
26158;BMP280;67284;44.782;10.282;2023-07-08T21:15:31;101329.47;;;24.78
26158;BMP280;67284;44.782;10.282;2023-07-08T21:20:24;101325.31;;;24.74
26158;BMP280;67284;44.782;10.282;2023-07-08T21:25:18;101338.56;;;24.72
26158;BMP280;67284;44.782;10.282;2023-07-08T21:30:20;101336.88;;;24.71
26158;BMP280;67284;44.782;10.282;2023-07-08T21:35:14;101335.19;;;24.70
26158;BMP280;67284;44.782;10.282;2023-07-08T21:40:15;101332.66;;;24.69
26158;BMP280;67284;44.782;10.282;2023-07-08T21:45:23;101341.47;;;24.68
26158;BMP280;67284;44.782;10.282;2023-07-08T21:50:15;101339.94;;;24.64
26158;BMP280;67284;44.782;10.282;2023-07-08T21:55:14;101337.50;;;24.61
26158;BMP280;67284;44.782;10.282;2023-07-08T22:00:06;101340.31;;;24.58
26158;BMP280;67284;44.782;10.282;2023-07-08T22:05:02;101331.63;;;24.56
26158;BMP280;67284;44.782;10.282;2023-07-08T22:09:54;101331.63;;;24.56
26158;BMP280;67284;44.782;10.282;2023-07-08T22:14:46;101329.97;;;24.55
26158;BMP280;67284;44.782;10.282;2023-07-08T22:19:38;101330.06;;;24.54
26158;BMP280;67284;44.782;10.282;2023-07-08T22:24:30;101336.25;;;24.53
26158;BMP280;67284;44.782;10.282;2023-07-08T22:29:24;101338.13;;;24.51
26158;BMP280;67284;44.782;10.282;2023-07-08T22:34:17;101336.50;;;24.48
26158;BMP280;67284;44.782;10.282;2023-07-08T22:39:10;101340.06;;;24.47
26158;BMP280;67284;44.782;10.282;2023-07-08T22:44:03;101344.56;;;24.45
26158;BMP280;67284;44.782;10.282;2023-07-08T22:48:55;101346.44;;;24.43
26158;BMP280;67284;44.782;10.282;2023-07-08T22:53:49;101351.69;;;24.43
26158;BMP280;67284;44.782;10.282;2023-07-08T22:58:41;101348.31;;;24.41
26158;BMP280;67284;44.782;10.282;2023-07-08T23:03:33;101351.88;;;24.40
26158;BMP280;67284;44.782;10.282;2023-07-08T23:08:28;101347.63;;;24.38
26158;BMP280;67284;44.782;10.282;2023-07-08T23:13:36;101343.31;;;24.37
26158;BMP280;67284;44.782;10.282;2023-07-08T23:18:28;101344.25;;;24.36
26158;BMP280;67284;44.782;10.282;2023-07-08T23:23:20;101343.41;;;24.35
26158;BMP280;67284;44.782;10.282;2023-07-08T23:28:13;101355.75;;;24.33
26158;BMP280;67284;44.782;10.282;2023-07-08T23:33:12;101361.00;;;24.33
26158;BMP280;67284;44.782;10.282;2023-07-08T23:38:05;101359.28;;;24.32
26158;BMP280;67284;44.782;10.282;2023-07-08T23:42:58;101364.56;;;24.32
26158;BMP280;67284;44.782;10.282;2023-07-08T23:47:50;101362.09;;;24.29
26158;BMP280;67284;44.782;10.282;2023-07-08T23:52:42;101362.19;;;24.28
26158;BMP280;67284;44.782;10.282;2023-07-08T23:57:33;101359.72;;;24.25
